Terminal Aerodrome Forecast
Issued by NWS Twin Cities, MN

Home | Current Version | Previous Version | Text Only | Print | Product List | Glossary On
Versions: 1 2 3 4 5 6 7 8 9 10 11 12 13 14 15 16 17 18 19 20
000
FTUS43 KMPX 012300
TAFEAU
TAF
KEAU 012334Z 0200/0224 27007KT P6SM FEW050 SCT250
     FM020900 25003KT P6SM VCSH SCT050 OVC090
     FM021600 26006KT P6SM SCT050 BKN110
     FM021900 28008KT P6SM SCT060=

USA.gov is the U.S. government's official web portal to all federal, state and local government web resources and services.